createdAt,value
2019-02-11T00:00:49.274Z,0.00
2019-02-11T00:01:49.262Z,0.00
2019-02-11T00:02:49.259Z,0.00
2019-02-11T00:03:49.243Z,0.00
2019-02-11T00:04:49.229Z,0.00
2019-02-11T00:05:49.219Z,0.00
2019-02-11T00:06:49.207Z,0.00
2019-02-11T00:07:49.198Z,0.00
2019-02-11T00:08:49.201Z,0.00
2019-02-11T00:09:49.175Z,0.00
2019-02-11T00:10:49.168Z,0.00
2019-02-11T00:11:49.157Z,0.00
2019-02-11T00:12:49.146Z,0.00
2019-02-11T00:13:49.136Z,0.00
2019-02-11T00:14:49.140Z,0.00
2019-02-11T00:15:49.123Z,0.00
2019-02-11T00:16:49.104Z,0.00
2019-02-11T00:17:49.097Z,0.00
2019-02-11T00:18:49.082Z,0.00
2019-02-11T00:19:49.078Z,0.00
2019-02-11T00:20:49.073Z,0.00
2019-02-11T00:21:49.106Z,0.00
2019-02-11T00:22:49.040Z,0.00
2019-02-11T00:23:49.036Z,0.00
2019-02-11T00:24:49.022Z,0.00
2019-02-11T00:25:49.010Z,0.00
2019-02-11T00:26:49.110Z,0.00
2019-02-11T00:27:48.987Z,0.00
2019-02-11T00:28:48.981Z,0.00
2019-02-11T00:29:48.968Z,0.00
2019-02-11T00:30:48.958Z,0.00
2019-02-11T00:31:48.946Z,0.00
2019-02-11T00:32:49.025Z,0.00
2019-02-11T00:33:48.926Z,0.00
2019-02-11T00:34:48.920Z,0.00
2019-02-11T00:35:48.907Z,0.00
2019-02-11T00:36:48.894Z,0.00
2019-02-11T00:37:48.885Z,0.00
2019-02-11T00:38:48.888Z,0.00
2019-02-11T00:39:48.865Z,0.00
2019-02-11T00:40:48.853Z,0.00
2019-02-11T00:41:48.844Z,0.00
2019-02-11T00:42:48.832Z,0.00
2019-02-11T00:43:48.827Z,0.00
2019-02-11T00:44:48.826Z,0.00
2019-02-11T00:45:48.804Z,0.00
2019-02-11T00:46:48.791Z,0.00
2019-02-11T00:47:48.782Z,0.00
2019-02-11T00:48:48.769Z,0.00
2019-02-11T00:49:48.757Z,0.00
2019-02-11T00:50:48.778Z,0.00
2019-02-11T00:51:48.736Z,0.00
2019-02-11T00:52:48.730Z,0.00
2019-02-11T00:53:48.722Z,0.00
2019-02-11T00:54:48.717Z,0.00
2019-02-11T00:55:48.698Z,0.00
2019-02-11T00:56:48.701Z,0.00
2019-02-11T00:57:48.675Z,0.00
2019-02-11T00:58:48.666Z,0.00
2019-02-11T00:59:48.659Z,0.00
2019-02-11T01:00:48.641Z,0.00
2019-02-11T01:01:48.633Z,0.00
2019-02-11T01:02:48.634Z,0.00
2019-02-11T01:03:48.614Z,0.00
2019-02-11T01:04:48.608Z,0.00
2019-02-11T01:05:48.592Z,0.00
2019-02-11T01:06:48.582Z,0.00
2019-02-11T01:07:48.578Z,0.00
2019-02-11T01:08:48.595Z,0.00
2019-02-11T01:09:48.550Z,0.00
2019-02-11T01:10:48.540Z,0.00
2019-02-11T01:11:48.528Z,0.00
2019-02-11T01:12:48.515Z,0.00
2019-02-11T01:13:48.509Z,0.00
2019-02-11T01:14:48.524Z,0.00
2019-02-11T01:15:48.486Z,0.00
2019-02-11T01:16:48.479Z,0.00
2019-02-11T01:17:48.467Z,0.00
2019-02-11T01:18:48.457Z,0.00
2019-02-11T01:19:48.444Z,0.00
2019-02-11T01:20:48.448Z,0.00
2019-02-11T01:21:48.425Z,0.00
2019-02-11T01:22:48.412Z,0.00
2019-02-11T01:23:48.402Z,0.00
2019-02-11T01:24:48.410Z,0.00
2019-02-11T01:25:48.387Z,0.00
2019-02-11T01:26:48.477Z,0.00
2019-02-11T01:27:48.360Z,0.00
2019-02-11T01:28:48.352Z,0.00
2019-02-11T01:29:48.342Z,0.00
2019-02-11T01:30:48.331Z,0.00
2019-02-11T01:31:48.319Z,0.00
2019-02-11T01:32:48.325Z,0.00
2019-02-11T01:33:48.296Z,0.00
2019-02-11T01:34:48.288Z,0.00
2019-02-11T01:35:48.277Z,0.00
2019-02-11T01:36:48.265Z,0.00
2019-02-11T01:37:48.255Z,0.00
2019-02-11T01:38:48.259Z,0.00
2019-02-11T01:39:48.232Z,0.00
2019-02-11T01:40:48.219Z,0.00
2019-02-11T01:41:48.213Z,0.00
2019-02-11T01:42:48.203Z,0.00
2019-02-11T01:43:48.194Z,0.00
2019-02-11T01:44:48.197Z,0.00
2019-02-11T01:45:48.168Z,0.00
2019-02-11T01:46:48.159Z,0.00
2019-02-11T01:47:48.149Z,0.00
2019-02-11T01:48:48.140Z,0.00
2019-02-11T01:49:48.127Z,0.00
2019-02-11T01:50:48.137Z,0.00
2019-02-11T01:51:48.108Z,0.00
2019-02-11T01:52:48.142Z,0.00
2019-02-11T01:53:48.091Z,0.00
2019-02-11T01:54:48.077Z,0.00
2019-02-11T01:55:48.060Z,0.00
2019-02-11T01:56:48.069Z,0.00
2019-02-11T01:57:48.047Z,0.00
2019-02-11T01:58:48.036Z,0.00
2019-02-11T01:59:48.022Z,0.00
2019-02-11T02:00:48.012Z,0.00
2019-02-11T02:01:48.003Z,0.00
2019-02-11T02:02:48.006Z,0.00
2019-02-11T02:03:47.981Z,0.00
2019-02-11T02:04:47.972Z,0.00
2019-02-11T02:05:47.968Z,0.00
2019-02-11T02:06:47.952Z,0.00
2019-02-11T02:07:47.942Z,0.00
2019-02-11T02:08:47.949Z,0.00
2019-02-11T02:09:47.920Z,0.00
2019-02-11T02:10:47.910Z,0.00
2019-02-11T02:11:47.900Z,0.00
2019-02-11T02:12:47.891Z,0.00
2019-02-11T02:13:47.879Z,0.00
2019-02-11T02:14:47.888Z,0.00
2019-02-11T02:15:47.859Z,0.00
2019-02-11T02:16:47.846Z,0.00
2019-02-11T02:17:47.837Z,0.00
2019-02-11T02:18:47.828Z,0.00
2019-02-11T02:19:47.815Z,0.00
2019-02-11T02:20:47.821Z,0.00
2019-02-11T02:21:47.796Z,0.00
2019-02-11T02:22:47.786Z,0.00
2019-02-11T02:23:47.774Z,0.00
2019-02-11T02:24:47.761Z,0.00
2019-02-11T02:25:47.754Z,0.00
2019-02-11T02:26:47.759Z,0.00
2019-02-11T02:27:47.731Z,0.00
2019-02-11T02:28:47.728Z,0.00
2019-02-11T02:29:47.761Z,0.00
2019-02-11T02:30:47.704Z,0.00
2019-02-11T02:31:47.693Z,0.00
2019-02-11T02:32:47.701Z,0.00
2019-02-11T02:33:47.671Z,0.00
2019-02-11T02:34:47.660Z,0.00
2019-02-11T02:35:47.650Z,0.00
2019-02-11T02:36:47.639Z,0.00
2019-02-11T02:37:47.630Z,0.00
2019-02-11T02:38:47.632Z,0.00
2019-02-11T02:39:47.610Z,0.00
2019-02-11T02:40:47.594Z,0.00
2019-02-11T02:41:47.588Z,0.00
2019-02-11T02:42:47.581Z,0.00
2019-02-11T02:43:55.133Z,0.00
2019-02-11T02:44:48.574Z,0.00
2019-02-11T02:45:47.561Z,0.00
2019-02-11T02:46:47.538Z,0.00
2019-02-11T02:47:47.530Z,0.00
2019-02-11T02:48:47.522Z,0.00
2019-02-11T02:49:47.508Z,0.00
2019-02-11T02:50:47.511Z,0.00
2019-02-11T02:51:47.486Z,0.00
2019-02-11T02:52:47.476Z,0.00
2019-02-11T02:53:47.466Z,0.00
2019-02-11T02:54:47.453Z,0.00
2019-02-11T02:55:47.450Z,0.00
2019-02-11T02:56:47.447Z,0.00
2019-02-11T02:57:47.424Z,0.00
2019-02-11T02:58:47.412Z,0.00
2019-02-11T02:59:47.403Z,0.00
2019-02-11T03:00:47.397Z,0.00
2019-02-11T03:01:47.381Z,0.00
2019-02-11T03:02:47.383Z,0.00
2019-02-11T03:03:47.357Z,0.00
2019-02-11T03:04:47.351Z,0.00
2019-02-11T03:05:47.390Z,0.00
2019-02-11T03:06:47.330Z,0.00
2019-02-11T03:07:47.321Z,0.00
2019-02-11T03:08:47.563Z,0.00
2019-02-11T03:09:47.355Z,0.00
2019-02-11T03:10:47.287Z,0.00
2019-02-11T03:11:47.272Z,0.00
2019-02-11T03:12:47.274Z,0.00
2019-02-11T03:13:47.261Z,0.00
2019-02-11T03:14:47.258Z,0.00
2019-02-11T03:15:47.231Z,0.00
2019-02-11T03:16:47.223Z,0.00
2019-02-11T03:17:47.210Z,0.00
2019-02-11T03:18:47.203Z,0.00
2019-02-11T03:19:47.190Z,0.00
2019-02-11T03:20:47.192Z,0.00
2019-02-11T03:21:47.171Z,0.00
2019-02-11T03:22:47.158Z,0.00
2019-02-11T03:23:47.147Z,0.00
2019-02-11T03:24:47.138Z,0.00
2019-02-11T03:25:47.135Z,0.00
2019-02-11T03:26:47.132Z,0.00
2019-02-11T03:27:47.109Z,0.00
2019-02-11T03:28:47.096Z,0.00
2019-02-11T03:29:47.086Z,0.00
2019-02-11T03:30:47.080Z,0.00
2019-02-11T03:31:47.072Z,0.00
2019-02-11T03:32:47.091Z,0.00
2019-02-11T03:33:47.054Z,0.00
2019-02-11T03:34:47.044Z,0.00
2019-02-11T03:35:47.025Z,0.00
2019-02-11T03:36:47.010Z,0.00
2019-02-11T03:37:47.001Z,0.00
2019-02-11T03:38:47.004Z,0.00
2019-02-11T03:39:46.982Z,0.00
2019-02-11T03:40:46.968Z,0.00
2019-02-11T03:41:46.960Z,0.00
2019-02-11T03:42:46.954Z,0.00
2019-02-11T03:43:46.943Z,0.00
2019-02-11T03:44:46.940Z,0.00
2019-02-11T03:45:46.918Z,0.00
2019-02-11T03:46:46.908Z,0.00
2019-02-11T03:47:46.896Z,0.00
2019-02-11T03:48:46.892Z,0.00
2019-02-11T03:49:46.876Z,0.00
2019-02-11T03:50:46.876Z,0.00
2019-02-11T03:51:46.857Z,0.00
2019-02-11T03:52:46.847Z,0.00
2019-02-11T03:53:46.831Z,0.00
2019-02-11T03:54:46.828Z,0.00
2019-02-11T03:55:46.815Z,0.00
2019-02-11T03:56:46.822Z,0.00
2019-02-11T03:57:46.791Z,0.00
2019-02-11T03:58:46.786Z,0.00
2019-02-11T03:59:46.777Z,0.00
2019-02-11T04:00:46.760Z,0.00
2019-02-11T04:01:46.752Z,0.00
2019-02-11T04:02:46.762Z,0.00
2019-02-11T04:03:46.735Z,0.00
2019-02-11T04:04:46.718Z,0.00
2019-02-11T04:05:46.708Z,0.00
2019-02-11T04:06:46.702Z,0.00
2019-02-11T04:07:46.695Z,0.00
2019-02-11T04:08:46.692Z,0.00
2019-02-11T04:09:46.663Z,0.00
2019-02-11T04:10:46.658Z,0.00
2019-02-11T04:11:46.654Z,0.00
2019-02-11T04:12:46.638Z,0.00
2019-02-11T04:13:46.629Z,0.00
2019-02-11T04:14:46.630Z,0.00
2019-02-11T04:15:46.603Z,0.00
2019-02-11T04:16:46.597Z,0.00
2019-02-11T04:17:46.588Z,0.00
2019-02-11T04:18:46.572Z,0.00
2019-02-11T04:19:46.566Z,0.00
2019-02-11T04:20:48.537Z,0.00
2019-02-11T04:21:46.543Z,0.00
2019-02-11T04:22:46.534Z,0.00
2019-02-11T04:23:46.527Z,0.00
2019-02-11T04:24:46.509Z,0.00
2019-02-11T04:25:46.501Z,0.00
2019-02-11T04:26:46.507Z,0.00
2019-02-11T04:27:46.483Z,0.00
2019-02-11T04:28:46.476Z,0.00
2019-02-11T04:29:46.463Z,0.00
2019-02-11T04:30:46.448Z,0.00
2019-02-11T04:31:46.442Z,0.00
2019-02-11T04:32:46.443Z,0.00
2019-02-11T04:33:46.421Z,0.00
2019-02-11T04:34:46.409Z,0.00
2019-02-11T04:35:46.398Z,0.00
2019-02-11T04:36:46.388Z,0.00
2019-02-11T04:37:46.379Z,0.00
2019-02-11T04:38:46.385Z,0.00
2019-02-11T04:39:46.356Z,0.00
2019-02-11T04:40:46.347Z,0.00
2019-02-11T04:41:46.337Z,0.00
2019-02-11T04:42:46.328Z,0.00
2019-02-11T04:43:46.315Z,0.00
2019-02-11T04:44:46.332Z,0.00
2019-02-11T04:45:46.296Z,0.00
2019-02-11T04:46:46.293Z,0.00
2019-02-11T04:47:46.277Z,0.00
2019-02-11T04:48:46.264Z,0.00
2019-02-11T04:49:46.254Z,0.00
2019-02-11T04:50:46.259Z,0.00
2019-02-11T04:51:46.235Z,0.00
2019-02-11T04:52:46.224Z,0.00
2019-02-11T04:53:46.212Z,0.00
2019-02-11T04:54:46.204Z,0.00
2019-02-11T04:55:46.192Z,0.00
2019-02-11T04:56:46.192Z,0.00
2019-02-11T04:57:46.170Z,0.00
2019-02-11T04:58:46.167Z,0.00
2019-02-11T04:59:46.154Z,0.00
2019-02-11T05:00:46.138Z,0.00
2019-02-11T05:01:46.129Z,0.00
2019-02-11T05:02:46.141Z,0.00
2019-02-11T05:03:46.106Z,0.00
2019-02-11T05:04:46.098Z,0.00
2019-02-11T05:05:46.085Z,0.00
2019-02-11T05:06:46.079Z,0.00
2019-02-11T05:07:46.070Z,0.00
2019-02-11T05:08:46.082Z,0.00
2019-02-11T05:09:46.045Z,0.00
2019-02-11T05:10:46.032Z,0.00
2019-02-11T05:11:46.020Z,0.00
2019-02-11T05:12:46.015Z,0.00
2019-02-11T05:13:46.007Z,0.00
2019-02-11T05:14:46.006Z,0.00
2019-02-11T05:15:45.984Z,0.00
2019-02-11T05:16:45.974Z,0.00
2019-02-11T05:17:45.989Z,0.00
2019-02-11T05:18:45.949Z,0.00
2019-02-11T05:19:45.944Z,0.00
2019-02-11T05:20:45.946Z,0.00
2019-02-11T05:21:45.933Z,0.00
2019-02-11T05:22:45.966Z,0.00
2019-02-11T05:23:45.906Z,0.00
2019-02-11T05:24:45.889Z,0.00
2019-02-11T05:25:45.902Z,0.00
2019-02-11T05:26:45.930Z,0.00
2019-02-11T05:27:45.861Z,0.00
2019-02-11T05:29:37.184Z,0.00
2019-02-11T05:30:37.179Z,0.00
2019-02-11T05:31:37.182Z,0.00
2019-02-11T05:32:37.189Z,0.00
2019-02-11T05:33:37.148Z,0.00
2019-02-11T05:34:37.150Z,0.00
2019-02-11T05:35:37.128Z,0.00
2019-02-11T05:36:37.118Z,0.00
2019-02-11T05:37:37.106Z,0.00
2019-02-11T05:38:37.122Z,0.00
2019-02-11T05:39:37.084Z,0.00
2019-02-11T05:40:37.076Z,0.00
2019-02-11T05:41:37.069Z,0.00
2019-02-11T05:42:37.059Z,0.00
2019-02-11T05:43:37.040Z,0.00
2019-02-11T05:44:37.043Z,0.00
2019-02-11T05:45:37.020Z,0.00
2019-02-11T05:46:37.024Z,0.00
2019-02-11T05:47:36.997Z,0.00
2019-02-11T05:48:36.998Z,0.00
2019-02-11T05:49:36.982Z,0.00
2019-02-11T05:50:36.986Z,0.00
2019-02-11T05:51:36.958Z,0.00
2019-02-11T05:52:36.949Z,0.00
2019-02-11T05:53:36.944Z,0.00
2019-02-11T05:54:36.934Z,0.00
2019-02-11T05:55:36.964Z,0.00
2019-02-11T05:56:36.925Z,0.00
2019-02-11T05:57:36.908Z,0.00
2019-02-11T05:58:36.887Z,0.00
2019-02-11T05:59:36.879Z,0.00
2019-02-11T06:00:36.873Z,0.00
2019-02-11T06:01:36.853Z,0.00
2019-02-11T06:02:36.862Z,0.00
2019-02-11T06:03:36.875Z,0.00
2019-02-11T06:04:36.823Z,0.00
2019-02-11T06:05:36.814Z,0.00
2019-02-11T06:06:36.801Z,0.00
2019-02-11T06:07:36.794Z,0.00
2019-02-11T06:08:36.798Z,0.00
2019-02-11T06:09:36.778Z,0.00
2019-02-11T06:10:36.759Z,0.00
2019-02-11T06:11:36.750Z,0.00
2019-02-11T06:12:36.741Z,0.00
2019-02-11T06:13:36.730Z,0.00
2019-02-11T06:14:36.734Z,0.00
2019-02-11T06:15:36.708Z,4.00
2019-02-11T06:16:36.701Z,4.00
2019-02-11T06:17:36.685Z,4.00
2019-02-11T06:18:36.682Z,4.00
2019-02-11T06:19:36.668Z,4.00
2019-02-11T06:20:36.673Z,4.00
2019-02-11T06:21:36.645Z,8.00
2019-02-11T06:22:36.633Z,8.00
2019-02-11T06:23:36.624Z,12.00
2019-02-11T06:24:36.630Z,12.00
2019-02-11T06:25:36.602Z,16.00
2019-02-11T06:26:36.620Z,20.00
2019-02-11T06:27:36.582Z,28.00
2019-02-11T06:28:36.575Z,32.00
2019-02-11T06:29:36.561Z,40.00
2019-02-11T06:30:36.548Z,44.00
2019-02-11T06:31:36.549Z,48.00
2019-02-11T06:32:36.572Z,44.00
2019-02-11T06:33:36.520Z,48.00
2019-02-11T06:34:36.512Z,60.00
2019-02-11T06:35:36.505Z,72.00
2019-02-11T06:36:36.487Z,88.00
2019-02-11T06:37:36.480Z,100.00
2019-02-11T06:38:36.485Z,120.00
2019-02-11T06:39:36.458Z,140.00
2019-02-11T06:40:36.445Z,148.00
2019-02-11T06:41:36.441Z,156.00
2019-02-11T06:42:36.425Z,172.00
2019-02-11T06:43:36.415Z,172.00
2019-02-11T06:44:36.428Z,184.00
2019-02-11T06:45:36.399Z,196.00
2019-02-11T06:46:36.390Z,180.00
2019-02-11T06:47:36.374Z,176.00
2019-02-11T06:48:36.364Z,164.00
2019-02-11T06:49:36.351Z,188.00
2019-02-11T06:50:36.361Z,196.00
2019-02-11T06:51:36.332Z,212.00
2019-02-11T06:52:36.322Z,208.00
2019-02-11T06:53:36.317Z,200.00
2019-02-11T06:54:36.301Z,216.00
2019-02-11T06:55:36.290Z,236.00
2019-02-11T06:56:36.300Z,252.00
2019-02-11T06:57:36.272Z,268.00
2019-02-11T06:58:36.261Z,256.00
2019-02-11T06:59:36.245Z,268.00
2019-02-11T07:00:36.239Z,300.00
2019-02-11T07:01:36.229Z,328.00
2019-02-11T07:02:36.236Z,324.00
2019-02-11T07:03:36.210Z,328.00
2019-02-11T07:04:36.197Z,380.00
2019-02-11T07:05:36.192Z,468.00
2019-02-11T07:06:36.184Z,572.00
2019-02-11T07:07:36.771Z,620.00
2019-02-11T07:08:36.171Z,668.00
2019-02-11T07:09:36.193Z,708.00
2019-02-11T07:10:36.149Z,680.00
2019-02-11T07:11:36.137Z,696.00
2019-02-11T07:12:36.139Z,740.00
2019-02-11T07:13:36.115Z,788.00
2019-02-11T07:14:36.111Z,864.00
2019-02-11T07:15:36.085Z,976.00
2019-02-11T07:16:36.075Z,1164.00
2019-02-11T07:17:36.066Z,1448.00
2019-02-11T07:18:37.170Z,1472.00
2019-02-11T07:19:36.066Z,1356.00
2019-02-11T07:20:36.056Z,1208.00
2019-02-11T07:21:36.024Z,1124.00
2019-02-11T07:22:36.013Z,1176.00
2019-02-11T07:23:36.000Z,1284.00
2019-02-11T07:24:35.997Z,1348.00
2019-02-11T07:25:35.981Z,1460.00
2019-02-11T07:26:35.984Z,1564.00
2019-02-11T07:27:35.959Z,1668.00
2019-02-11T07:28:35.946Z,1700.00
2019-02-11T07:29:35.941Z,1672.00
2019-02-11T07:30:35.936Z,1728.00
2019-02-11T07:31:35.918Z,1856.00
2019-02-11T07:32:35.924Z,1952.00
2019-02-11T07:33:35.898Z,1996.00
2019-02-11T07:34:35.889Z,2116.00
2019-02-11T07:35:35.876Z,2276.00
2019-02-11T07:36:35.869Z,2188.00
2019-02-11T07:37:35.865Z,2160.00
2019-02-11T07:38:35.870Z,2188.00
2019-02-11T07:39:35.834Z,2256.00
2019-02-11T07:40:35.832Z,2320.00
2019-02-11T07:41:35.818Z,2432.00
2019-02-11T07:42:35.815Z,2452.00
2019-02-11T07:43:35.794Z,2500.00
2019-02-11T07:44:35.842Z,2636.00
2019-02-11T07:45:35.777Z,2700.00
2019-02-11T07:46:35.789Z,2772.00
2019-02-11T07:47:35.760Z,2816.00
2019-02-11T07:48:35.750Z,2980.00
2019-02-11T07:49:35.735Z,3196.00
2019-02-11T07:50:35.768Z,3460.00
2019-02-11T07:51:42.139Z,3964.00
2019-02-11T07:52:36.707Z,4416.00
2019-02-11T07:53:35.698Z,4644.00
2019-02-11T07:54:35.697Z,4432.00
2019-02-11T07:55:35.674Z,4236.00
2019-02-11T07:56:35.709Z,4168.00
2019-02-11T07:57:35.655Z,4056.00
2019-02-11T07:58:35.646Z,4156.00
2019-02-11T07:59:35.630Z,3908.00
2019-02-11T08:00:35.633Z,3888.00
2019-02-11T08:01:35.617Z,3916.00
2019-02-11T08:02:35.611Z,3796.00
2019-02-11T08:03:35.586Z,3724.00
2019-02-11T08:04:35.575Z,3528.00
2019-02-11T08:05:35.579Z,3240.00
2019-02-11T08:06:35.555Z,2928.00
2019-02-11T08:07:35.550Z,2640.00
2019-02-11T08:08:35.563Z,2608.00
2019-02-11T08:09:35.525Z,2336.00
2019-02-11T08:10:35.505Z,2172.00
2019-02-11T08:11:35.501Z,2380.00
2019-02-11T08:12:35.486Z,2628.00
2019-02-11T08:13:35.473Z,3064.00
2019-02-11T08:14:35.479Z,3720.00
2019-02-11T08:15:38.613Z,4608.00
2019-02-11T08:16:35.476Z,4916.00
2019-02-11T08:17:35.432Z,5720.00
2019-02-11T08:18:35.435Z,5208.00
2019-02-11T08:19:35.431Z,5008.00
2019-02-11T08:20:35.437Z,5228.00
2019-02-11T08:21:35.390Z,5176.00
2019-02-11T08:22:35.380Z,5224.00
2019-02-11T08:23:35.380Z,4848.00
2019-02-11T08:24:35.367Z,4444.00
2019-02-11T08:25:35.348Z,4500.00
2019-02-11T08:26:35.362Z,4788.00
2019-02-11T08:27:35.326Z,5020.00
2019-02-11T08:28:35.323Z,5188.00
2019-02-11T08:29:35.303Z,5388.00
2019-02-11T08:30:35.303Z,5552.00
2019-02-11T08:31:35.284Z,5936.00
2019-02-11T08:32:35.284Z,6392.00
2019-02-11T08:33:35.262Z,6660.00
2019-02-11T08:34:35.262Z,6548.00
2019-02-11T08:35:35.246Z,6520.00
2019-02-11T08:36:35.236Z,6128.00
2019-02-11T08:37:35.228Z,5984.00
2019-02-11T08:38:35.224Z,6084.00
2019-02-11T08:39:35.202Z,6400.00
2019-02-11T08:40:35.194Z,6296.00
2019-02-11T08:41:35.180Z,6892.00
2019-02-11T08:42:35.186Z,7036.00
2019-02-11T08:43:35.163Z,7592.00
2019-02-11T08:44:35.161Z,7076.00
2019-02-11T08:45:35.138Z,6944.00
2019-02-11T08:46:35.129Z,7828.00
2019-02-11T08:47:35.116Z,7800.00
2019-02-11T08:48:35.119Z,8484.00
2019-02-11T08:49:35.093Z,9216.00
2019-02-11T08:50:35.097Z,9216.00
2019-02-11T08:51:35.074Z,9116.00
2019-02-11T08:52:35.065Z,8556.00
2019-02-11T08:53:35.060Z,8352.00
2019-02-11T08:54:35.045Z,9224.00
2019-02-11T08:55:35.030Z,8836.00
2019-02-11T08:56:35.038Z,8688.00
2019-02-11T08:57:35.017Z,7972.00
2019-02-11T08:58:35.001Z,7456.00
2019-02-11T08:59:34.989Z,7268.00
2019-02-11T09:00:34.984Z,7692.00
2019-02-11T09:01:34.966Z,8000.00
2019-02-11T09:02:34.969Z,8104.00
2019-02-11T09:03:34.944Z,8116.00
2019-02-11T09:04:34.937Z,7608.00
2019-02-11T09:05:34.938Z,7564.00
2019-02-11T09:06:34.930Z,7640.00
2019-02-11T09:07:34.921Z,7724.00
2019-02-11T09:08:34.905Z,8196.00
2019-02-11T09:09:34.882Z,8588.00
2019-02-11T09:10:34.873Z,8440.00
2019-02-11T09:11:34.864Z,8444.00
2019-02-11T09:12:34.850Z,8440.00
2019-02-11T09:13:34.841Z,8712.00
2019-02-11T09:14:34.849Z,7980.00
2019-02-11T09:15:34.818Z,8052.00
2019-02-11T09:16:34.818Z,8204.00
2019-02-11T09:17:34.800Z,8920.00
2019-02-11T09:18:34.792Z,9268.00
2019-02-11T09:19:34.779Z,9472.00
2019-02-11T09:20:34.791Z,10096.00
2019-02-11T09:21:34.756Z,10596.00
2019-02-11T09:22:34.744Z,10652.00
2019-02-11T09:23:34.735Z,10704.00
2019-02-11T09:24:34.971Z,10780.00
2019-02-11T09:25:34.712Z,10372.00
2019-02-11T09:26:34.715Z,9880.00
2019-02-11T09:27:34.690Z,9640.00
2019-02-11T09:28:34.681Z,9312.00
2019-02-11T09:29:34.683Z,9688.00
2019-02-11T09:30:34.661Z,10148.00
2019-02-11T09:31:34.651Z,10832.00
2019-02-11T09:32:34.655Z,12800.00
2019-02-11T09:33:34.628Z,12936.00
2019-02-11T09:34:34.618Z,14032.00
2019-02-11T09:35:34.604Z,15544.00
2019-02-11T09:36:34.596Z,14752.00
2019-02-11T09:37:34.582Z,14224.00
2019-02-11T09:38:34.582Z,14116.00
2019-02-11T09:39:34.563Z,13804.00
2019-02-11T09:40:34.563Z,13828.00
2019-02-11T09:41:34.540Z,13180.00
2019-02-11T09:42:34.537Z,14144.00
2019-02-11T09:43:34.518Z,13620.00
2019-02-11T09:44:34.524Z,14524.00
2019-02-11T09:45:34.498Z,15820.00
2019-02-11T09:46:34.489Z,13892.00
2019-02-11T09:47:34.476Z,13648.00
2019-02-11T09:48:34.467Z,12740.00
2019-02-11T09:49:34.454Z,12432.00
2019-02-11T09:50:34.470Z,13220.00
2019-02-11T09:51:34.437Z,13444.00
2019-02-11T09:52:34.428Z,13300.00
2019-02-11T09:53:34.418Z,13464.00
2019-02-11T09:54:34.405Z,13528.00
2019-02-11T09:55:34.395Z,14224.00
2019-02-11T09:56:34.410Z,13148.00
2019-02-11T09:57:34.373Z,14108.00
2019-02-11T09:58:34.370Z,14108.00
2019-02-11T09:59:34.364Z,14156.00
2019-02-11T10:00:34.342Z,13988.00
2019-02-11T10:01:34.338Z,13092.00
2019-02-11T10:02:34.334Z,12580.00
2019-02-11T10:03:34.306Z,11972.00
2019-02-11T10:04:34.293Z,12056.00
2019-02-11T10:05:34.283Z,12008.00
2019-02-11T10:06:34.274Z,12844.00
2019-02-11T10:07:34.261Z,12756.00
2019-02-11T10:08:34.272Z,12436.00
2019-02-11T10:09:34.245Z,12176.00
2019-02-11T10:10:34.244Z,11736.00
2019-02-11T10:11:34.220Z,11568.00
2019-02-11T10:12:34.209Z,11300.00
2019-02-11T10:13:34.200Z,10800.00
2019-02-11T10:14:34.202Z,10468.00
2019-02-11T10:15:34.177Z,10100.00
2019-02-11T10:16:34.167Z,9840.00
2019-02-11T10:17:34.158Z,9328.00
2019-02-11T10:18:34.141Z,9264.00
2019-02-11T10:19:34.135Z,9364.00
2019-02-11T10:20:34.136Z,9452.00
2019-02-11T10:21:34.122Z,9420.00
2019-02-11T10:22:34.103Z,9820.00
2019-02-11T10:23:34.091Z,10208.00
2019-02-11T10:24:34.077Z,10468.00
2019-02-11T10:25:34.071Z,10704.00
2019-02-11T10:26:34.074Z,10072.00
2019-02-11T10:27:34.045Z,9560.00
2019-02-11T10:28:34.036Z,9436.00
2019-02-11T10:29:34.020Z,9160.00
2019-02-11T10:30:34.013Z,9248.00
2019-02-11T10:31:34.013Z,9580.00
2019-02-11T10:32:34.010Z,10508.00
2019-02-11T10:33:33.981Z,11372.00
2019-02-11T10:34:33.972Z,11420.00
2019-02-11T10:35:41.842Z,11884.00
2019-02-11T10:36:34.950Z,13008.00
2019-02-11T10:37:33.939Z,14720.00
2019-02-11T10:38:36.428Z,15316.00
2019-02-11T10:39:33.917Z,15688.00
2019-02-11T10:40:33.907Z,15288.00
2019-02-11T10:41:33.895Z,14836.00
2019-02-11T10:42:33.885Z,15432.00
2019-02-11T10:43:33.882Z,15296.00
2019-02-11T10:44:33.880Z,16352.00
2019-02-11T10:45:36.551Z,18496.00
2019-02-11T10:46:33.843Z,18656.00
2019-02-11T10:47:33.830Z,18720.00
2019-02-11T10:48:33.821Z,17440.00
2019-02-11T10:49:33.811Z,16576.00
2019-02-11T10:50:33.815Z,15604.00
2019-02-11T10:51:33.788Z,16160.00
2019-02-11T10:52:33.776Z,15840.00
2019-02-11T10:53:33.767Z,14492.00
2019-02-11T10:54:33.757Z,15808.00
2019-02-11T10:55:33.744Z,13896.00
2019-02-11T10:56:33.747Z,12628.00
2019-02-11T10:57:33.721Z,12356.00
2019-02-11T10:58:33.709Z,11972.00
2019-02-11T10:59:33.699Z,12236.00
2019-02-11T11:00:33.692Z,12436.00
2019-02-11T11:01:33.691Z,12400.00
2019-02-11T11:02:33.691Z,12732.00
2019-02-11T11:03:33.661Z,12948.00
2019-02-11T11:04:33.651Z,13140.00
2019-02-11T11:05:33.638Z,13948.00
2019-02-11T11:06:33.627Z,14824.00
2019-02-11T11:07:33.614Z,15496.00
2019-02-11T11:08:33.624Z,14668.00
2019-02-11T11:09:33.595Z,14076.00
2019-02-11T11:10:33.597Z,12480.00
2019-02-11T11:11:33.577Z,12280.00
2019-02-11T11:12:33.569Z,11864.00
2019-02-11T11:13:33.553Z,12252.00
2019-02-11T11:14:33.560Z,13216.00
2019-02-11T11:15:33.532Z,14584.00
2019-02-11T11:16:33.528Z,14032.00
2019-02-11T11:17:33.512Z,13552.00
2019-02-11T11:18:33.499Z,13504.00
2019-02-11T11:19:33.489Z,13712.00
2019-02-11T11:20:33.493Z,13268.00
2019-02-11T11:21:33.468Z,12920.00
2019-02-11T11:22:33.460Z,12592.00
2019-02-11T11:23:33.449Z,12724.00
2019-02-11T11:24:33.435Z,12992.00
2019-02-11T11:25:33.426Z,13868.00
2019-02-11T11:26:33.433Z,14740.00
2019-02-11T11:27:33.401Z,15068.00
2019-02-11T11:28:33.394Z,16672.00
2019-02-11T11:29:40.501Z,18176.00
2019-02-11T11:30:33.372Z,19488.00
2019-02-11T11:31:33.359Z,19840.00
2019-02-11T11:32:33.368Z,17920.00
2019-02-11T11:33:33.349Z,16704.00
2019-02-11T11:34:33.334Z,16352.00
2019-02-11T11:35:33.333Z,14664.00
2019-02-11T11:36:33.307Z,13968.00
2019-02-11T11:37:33.301Z,13864.00
2019-02-11T11:38:33.304Z,14248.00
2019-02-11T11:39:33.286Z,14728.00
2019-02-11T11:40:33.275Z,15244.00
2019-02-11T11:41:33.292Z,16352.00
2019-02-11T11:42:33.243Z,18752.00
2019-02-11T11:43:33.240Z,21600.00
2019-02-11T11:44:33.247Z,24864.00
2019-02-11T11:45:33.211Z,28288.00
2019-02-11T11:46:41.484Z,23552.00
2019-02-11T11:47:34.625Z,28544.00
2019-02-11T11:48:33.183Z,38144.00
2019-02-11T11:49:33.182Z,62464.00
2019-02-11T11:50:33.173Z,60800.00
2019-02-11T11:51:33.147Z,62464.00
2019-02-11T11:52:33.141Z,67712.00
2019-02-11T11:53:33.134Z,68256.00
2019-02-11T11:54:33.118Z,35488.00
2019-02-11T11:55:33.114Z,66720.00
2019-02-11T11:56:33.112Z,27200.00
2019-02-11T11:57:33.095Z,13264.00
2019-02-11T11:58:33.090Z,14176.00
2019-02-11T11:59:33.074Z,15332.00
2019-02-11T12:00:33.071Z,17088.00
2019-02-11T12:01:33.050Z,18976.00
2019-02-11T12:02:33.066Z,21376.00
2019-02-11T12:03:33.085Z,23328.00
2019-02-11T12:04:33.013Z,23936.00
2019-02-11T12:05:33.002Z,23136.00
2019-02-11T12:06:32.988Z,22080.00
2019-02-11T12:07:33.028Z,21472.00
2019-02-11T12:08:32.993Z,20416.00
2019-02-11T12:09:32.966Z,21184.00
2019-02-11T12:10:32.956Z,67264.00
2019-02-11T12:11:32.933Z,55424.00
2019-02-11T12:12:32.922Z,43168.00
2019-02-11T12:13:32.917Z,59072.00
2019-02-11T12:14:32.925Z,42048.00
2019-02-11T12:15:32.901Z,25280.00
2019-02-11T12:16:32.894Z,24736.00
2019-02-11T12:17:32.871Z,24544.00
2019-02-11T12:18:32.862Z,24864.00
2019-02-11T12:19:32.867Z,25696.00
2019-02-11T12:20:33.913Z,26496.00
2019-02-11T12:21:32.843Z,26464.00
2019-02-11T12:22:32.818Z,25536.00
2019-02-11T12:23:32.810Z,25056.00
2019-02-11T12:24:32.804Z,22560.00
2019-02-11T12:25:32.798Z,21184.00
2019-02-11T12:26:32.808Z,20800.00
2019-02-11T12:27:32.768Z,21120.00
2019-02-11T12:28:32.757Z,18624.00
2019-02-11T12:29:32.742Z,17056.00
2019-02-11T12:30:32.735Z,16480.00
2019-02-11T12:31:32.721Z,16416.00
2019-02-11T12:32:32.745Z,14412.00
2019-02-11T12:33:32.701Z,15468.00
2019-02-11T12:34:32.696Z,13900.00
2019-02-11T12:35:32.703Z,14884.00
2019-02-11T12:36:32.665Z,18080.00
2019-02-11T12:37:32.653Z,24800.00
2019-02-11T12:38:32.659Z,44064.00